Floral Park, NY

5:10 AM EDT en Septiembre 02, 2014 (GMT -0400)
La Guardia | Change Station
CLOSE
Current Station
Aeropuerto
Location: New York,
Altura: 30 ft
Estaciones meteorológicas cercanas

Alt 30 ft 40.78 °N, 73.88 °W | Updated 19 minutes ago

Clear
Despejado
79 ° F
Sensación térmica 79 ° F
N
5
Viento Variable Viento desde SSO

Hoy
Alta -- | Baja -- ° F
--% Posibilidad de precipitaciones
Ayer
Alta -- | Baja -- ° F
Precip. -- pul
6:22 AM 7:25 PM
Creciente, 49% visible
Presión 29.89 pul
Visibilidad 10.0 Millas
Nubes Despejado
Punto de rocío 73 ° F
Humedad 83%
Precipitaciones 0.00 pul
Espesor de la nieve No disponible.
UV 0 de una escala de 12
Polen 5.40 de una escala de 12
Calidad del aire No disponible.
Flu Activity No disponible.
METAR KLGA 020851Z 21004KT 10SM CLR 26/23 A2989

More Conditions Fewer Conditions

Presión 29.89 pul
Visibilidad 10.0 Millas
Nubes Despejado
Punto de rocío 73 ° F
Humedad 83%
Precipitaciones 0.00 pul
Espesor de la nieve No disponible.
UV 0 de una escala de 12
Polen 5.40 de una escala de 12
Calidad del aire No disponible.
Flu Activity No disponible.
METAR KLGA 020851Z 21004KT 10SM CLR 26/23 A2989

More Conditions Fewer Conditions

10-Day Weather Forecast

Almanac

Astronomía

Sep. 02, 2014 Salida Puesta
Hora real 6:22 AM EDT 7:25 PM EDT
Crepúsculo civil 5:54 AM EDT 7:53 PM EDT
Crepúsculo náutico 5:21 AM EDT 8:26 PM EDT
Crepúsculo astronómico 4:46 AM EDT 9:01 PM EDT
Luna 2:06 PM EDT Sin puesta de luna
Horas de luz 13h 58m
Horas de luz
13h 02m
Tomorrow will be 2m 36s shorter.
Creciente, 49% of the Moon is Illuminated
Hoy
Creciente
Sep 2
Cuarto creciente
Sep 8
Luna llena
Sep 15
Cuarto menguante
Sep 24
Nueva

Extremos de hoy

Máximos del estado Bajos del estado

Community

WunderPhotos

Upload Photos

1,749,587 ¡fotos cargadas!

WunderBlogs® & News

Nearby

Grosos de nieve

Estación Profundido Altura
No tenemos constancia de nieve nueva.

Actividad de terremotos

Ciudad Distance Mag. Tiempo y dato
No hay informes recientes de la actividad sísmica.
Magnitud mínima muestra es 2,5.

Temperaturas de aguas costeras

Lugar Temperatura
Kings Point, NY 73.9 ° F
Bridgeport, CT 75.9 ° F

Estaciones meteorológicas cercanas